Atascadero, California
Current Conditions -  °F | °C
As of 5:53 PM on Saturday 22 Nov 2014 (Local Time) from KPRB Reporting Station
Clear Clear  
Wind Chill: 17°   Ceiling: Unl
Heat Index: 17°   Visibility: 10mi
Dew Point: 13°   Wind: 14mph
Humidity: 78%   Direction: 310°NW
Pressure: 30.11"   Gusts: NA
Location:  35.49°N, 120.66°W
Report Text: KPRB 230153Z AUTO 31012KT 10SM CLR 17/13 A3011 RMK AO2 SLP195 T01670128 TSNO
Loading
Personal Weather Stations






























Interactive Weather Map New forecast layout! Learn more

10-Day Weather Forecast

Advertisements
Track Severe Weather on mobile